Aérodrome :
LOGIN :

S'inscrire | Disclaimer

   EN    FR    IT 

 










Légende :    VFR   VFR Marginal   IFR   IFR Intensif   IFR Très Intensif
Visi : 
Plafond : 
>= 8 km
>= 3000ft
5 à 8 km
1000 à 3000 ft
1500m à 5 km
500 à 1000 ft
800 à 1500m
200 à 500 ft
< 800m
< 200 ft
Symboles :   Orages  Brouillard  Fortes neiges  Fortes précipitations  Vent > 20 kt
SIGMETs :   Divers  Orages  Givrage  Turbulence  Onde Orograph.  Cendres Volcan.






- Altitude de l'aérodrome : 197 ft
- Code IATA : XOG


LFMO - Orange

DERNIER METAR :
  • 172000Z AUTO 13008KT 9999 FEW025 BKN076 18/14 Q1017 NOSIG

METARs EXPIRÉS :
  • 171930Z AUTO 14006KT CAVOK 18/14 Q1017 NOSIG
  • 171900Z AUTO 14008KT 9999 FEW068 OVC080 19/14 Q1017 NOSIG
  • 171830Z AUTO 15008KT 120V180 9999 FEW066 OVC078 19/14 Q1017 NOSIG
  • 171800Z AUTO 15008KT 9999 BKN066 OVC082 20/14 Q1017 NOSIG
  • 171730Z AUTO 16006KT 9999 FEW047 BKN060 OVC078 20/14 Q1016 NOSIG

TAF TAF LFMO
Valide du 17 à 15h jusqu'au 18 à 15h UTC


171400Z 1715/1815 16012KT 9999 BKN040
TEMPO 1810/1815 SHRA BKN035TCU
PROB30
TEMPO 1810/1815 4000 TSRA BKN035CB



MET'MAP, la Météo Aéronautique d'un coup d'oeil ! - Copyright ORBIFLY Décembre 2007 - Disclaimer

ORBIFLY MET'MAP TEAM :

Programmation & Développement : Alexandra Zaïnal
Conception & Développement : Baudouin d'Aumeries
Co-Programmation & Développement : Marc-Olivier Méhu
Soutien technique & logistique : Manuel Goepfert

Contact : metmap@orbifly.com




SOURCES & CREDITS :

   NOAA